Terminal Aerodrome Forecast
Issued by NWS

Home | Current Version | Previous Version | Text Only | Print | Product List | Glossary On
Versions: 1 2 3 4 5 6 7 8 9 10 11 12 13 14
000
FTUS44 KCRP 162333
TAFLRD
TAF
KLRD 162333Z 1700/1724 VRB03KT P6SM OVC004
     FM170400 VRB03KT 3SM BR OVC004
     FM170900 10004KT 1SM BR OVC002
     FM171600 12004KT 4SM BR OVC006
     FM171800 13004KT P6SM OVC015
     FM172100 12006KT P6SM OVC025=

USA.gov is the U.S. government's official web portal to all federal, state and local government web resources and services.